map of SNX home
SNX - Airport
Location
City:  Semnan, Semnan, Iran
Name:Semnan Municipal Airport
ICAO:OIIS
IATA:SNX

Details
Type:Airport (Aerodrome, Airfield)
Latitude:3535'28"N (35.591094)
Longitude:5329'42"E (53.495086)
Datum:WGS 1984
Elevation:3665 ft (1117 m)
Variation:4.66E (WMM2015v2 magnetic declination)
0.06 annual change

Time
Time Zone:UTC+3:30 (DST+4:30)
Local Time:

Weather
METAR:OIIS 041400Z 02010KT 9999 FEW030 SCT200 06/M07 Q1023

Related Locations
Nearby:
Farthest:GMR: 11436 mi / 18404 km
Mangareva [Totegegie], Gambier Islands, PF

Find:

   beyond  
but within

Other Information
Maps:
NOTAMs:
Links:
Sources:

  
  • flag of Iran
  

Sectional Chart

Flight Planning
at skyvector.com

Satellite Image

Google Maps Satellite view

 

Copyright © 2004-2019 Karl L. Swartz. All rights reserved.
The Great Circle Mapper name and logo are trademarks of the Great Circle Mapper.
All other trademarks mentioned herein belong to their respective owners.
Please see credits for attibutions and further copyright information.

  Follow gcmap on Facebook Follow gcmap on Twitter GCmap on LinkedIn

hCard Microformat

Geo Microformat